Flight Track Log - Related Links

Times and Time Zones

All times are in EDT time to prevent confusion due to time zone crossing. See the TPA724 flight status page for this flight to view local times or setup timezone preferences in your user account.

Time Position Orientation Groundspeed Altitude Reporting Facility
EDT Latitude Longitude Course Direction KTS MPH feet Rate Location/Type
Sat 11:21:15 PM 7.2990 -75.4890 350° North 449 517 23,400  Level FlightAware ADS-B
Sat 11:21:50 PM 7.3700 -75.5020 350° North 452 520 24,100 1,125 Climbing FlightAware ADS-B
Sat 11:22:35 PM 7.4620 -75.5180 350° North 458 527 24,900 975 Climbing FlightAware ADS-B
Sat 11:23:10 PM 7.5340 -75.5300 351° North 464 534 25,400 975 Climbing FlightAware ADS-B
Sat 11:23:55 PM 7.6340 -75.5480 350° North 468 539 26,200 1,000 Climbing FlightAware ADS-B
Sat 11:24:40 PM 7.7230 -75.5640 350° North 471 542 26,900 680 Climbing FlightAware ADS-B
Sat 11:25:32 PM 7.8270 -75.5820 350° North 474 545 27,300 677 Climbing FlightAware ADS-B
Sat 11:26:44 PM 7.9790 -75.6090 350° North 474 545 28,300 1,000 Climbing FlightAware ADS-B
Sat 11:27:20 PM 8.0740 -75.6260 350° North 486 559 29,100 1,055 Climbing FlightAware ADS-B
Sat 11:28:15 PM 8.2010 -75.6480 350° North 488 562 29,900 821 Climbing FlightAware ADS-B
Sat 11:28:55 PM 8.2910 -75.6640 350° North 488 562 30,400 337 Climbing FlightAware ADS-B
Sat 11:29:44 PM 8.3840 -75.6810 350° North 488 562 30,400  Level FlightAware ADS-B
Sat 11:30:21 PM 8.4530 -75.6930 350° North 488 562 30,400  Level FlightAware ADS-B
Sat 11:31:45 PM 8.6120 -75.7210 350° North 488 562 30,400  Level FlightAware ADS-B
Sat 11:32:21 PM 8.6800 -75.7340 349° North 488 562 30,400  Level FlightAware ADS-B
Sat 11:33:09 PM 8.7710 -75.7500 350° North 488 562 30,400  Level FlightAware ADS-B
Sat 11:33:33 PM 8.8160 -75.7580 350° North 488 562 30,400  Level FlightAware ADS-B
Sat 11:34:21 PM 8.9070 -75.7740 350° North 488 562 30,400  Level FlightAware ADS-B
Sat 11:35:33 PM 9.0430 -75.7980 350° North 488 562 30,400 2,961 Level FlightAware ADS-B
Sat 11:36:15 PM 9.2440 -75.8340 350° North 38,000 5,561 Climbing FlightAware ADS-B
Sat 11:36:55 PM 9.3270 -75.8480 351° North 446 513 38,000  Level FlightAware ADS-B
Sat 11:37:40 PM 9.4200 -75.8650 350° North 450 518 38,000  Level FlightAware ADS-B
Sat 11:38:15 PM 9.4890 -75.8770 350° North 447 514 38,000  Level FlightAware ADS-B
Sat 11:38:50 PM 9.5640 -75.8910 350° North 445 512 38,000  Level FlightAware ADS-B
Sat 11:39:35 PM 9.6570 -75.9070 350° North 442 509 38,000  Level FlightAware ADS-B
Sat 11:40:15 PM 9.7350 -75.9210 350° North 441 507 38,000  Level FlightAware ADS-B
Sat 11:40:50 PM 9.7980 -75.9320 350° North 441 507 38,000  Level FlightAware ADS-B
Sat 11:41:35 PM 9.8960 -75.9500 350° North 439 505 38,000  Level FlightAware ADS-B
Sat 11:42:15 PM 9.9760 -75.9640 350° North 439 505 38,000  Level FlightAware ADS-B
Sat 11:42:55 PM 10.0560 -75.9790 350° North 438 504 38,000  Level FlightAware ADS-B
Sat 11:43:40 PM 10.1460 -75.9950 350° North 438 504 38,000  Level FlightAware ADS-B
Sat 11:44:25 PM 10.2370 -76.0110 350° North 440 506 38,000  Level FlightAware ADS-B
Sat 11:45:05 PM 10.3180 -76.0260 350° North 442 509 38,000  Level FlightAware ADS-B
Sat 11:45:40 PM 10.3880 -76.0380 350° North 443 510 38,000  Level FlightAware ADS-B
Sat 11:46:20 PM 10.4700 -76.0530 350° North 443 510 38,000  Level FlightAware ADS-B
Sat 11:47:05 PM 10.5610 -76.0690 350° North 444 511 38,000  Level FlightAware ADS-B
Sat 11:47:40 PM 10.6320 -76.0820 350° North 444 511 38,000  Level FlightAware ADS-B
Sat 11:48:20 PM 10.7120 -76.0960 350° North 444 511 38,000  Level FlightAware ADS-B
Sat 11:49:06 PM 10.7980 -76.1120 350° North 446 513 38,000  Level FlightAware ADS-B
Sat 11:49:45 PM 10.8850 -76.1280 350° North 446 513 38,000  Level FlightAware ADS-B
Sat 11:50:30 PM 10.9760 -76.1440 350° North 445 512 38,000  Level FlightAware ADS-B
Sat 11:51:10 PM 11.0520 -76.1580 350° North 445 512 38,000  Level FlightAware ADS-B
Sat 11:51:48 PM 11.1170 -76.1690 351° North 445 512 38,000  Level FlightAware ADS-B
Sat 11:54:00 PM 11.3804 -76.2375 346° North  Level Estimated
Sat 11:55:00 PM 11.5001 -76.2686 346° North  Level Estimated
Sat 11:56:00 PM 11.6198 -76.2999 346° North  Level Estimated
Sat 11:57:00 PM 11.7395 -76.3311 346° North  Level Estimated
Sat 11:57:35 PM 11.8370 -76.2990 346° North 442 509 38,000  Level FlightAware ADS-B
Sat 11:58:12 PM 11.9000 -76.3110 349° North 442 509 38,000  Level FlightAware ADS-B
Sat 11:59:00 PM 11.9820 -76.3260 350° North 442 509 38,000  Level FlightAware ADS-B
Sat 11:59:36 PM 12.0440 -76.3370 350° North 442 509 38,000  Level FlightAware ADS-B
Sun 12:00:19 AM 12.1170 -76.3500 350° North 442 509 38,000  Level FlightAware ADS-B
Sun 12:01:07 AM 12.2000 -76.3650 350° North 442 509 38,000  Level FlightAware ADS-B
Sun 12:01:43 AM 12.2610 -76.3760 350° North 442 509 38,000  Level FlightAware ADS-B
Sun 12:02:19 AM 12.3230 -76.3870 350° North 442 509 38,000  Level FlightAware ADS-B
Sun 12:03:07 AM 12.4050 -76.4020 350° North 442 509 38,000  Level FlightAware ADS-B
Sun 12:03:43 AM 12.4670 -76.4130 350° North 442 509 38,000  Level FlightAware ADS-B
Sun 12:04:19 AM 12.5280 -76.4240 350° North 442 509 38,000  Level FlightAware ADS-B
Sun 12:05:07 AM 12.6100 -76.4390 350° North 442 509 38,000  Level FlightAware ADS-B
Sun 12:05:43 AM 12.6720 -76.4500 350° North 442 509 38,000  Level FlightAware ADS-B
Sun 12:06:20 AM 12.7350 -76.4620 349° North 442 509 38,000  Level FlightAware ADS-B
Sun 12:07:09 AM 12.8190 -76.4770 350° North 442 509 38,000  Level FlightAware ADS-B
Sun 12:09:00 AM 13.0399 -76.5373 345° North  Level Estimated
Sun 12:10:00 AM 13.1593 -76.5700 345° North  Level Estimated
Sun 12:11:00 AM 13.2786 -76.6027 345° North  Level Estimated
Sun 12:12:00 AM 13.3980 -76.6354 345° North  Level Estimated
Sun 12:13:00 AM 13.5174 -76.6682 345° North  Level Estimated
Sun 12:14:00 AM 13.6368 -76.7010 345° North  Level Estimated
Sun 12:15:00 AM 13.7561 -76.7338 345° North  Level Estimated
Sun 12:16:00 AM 13.8755 -76.7666 345° North  Level Estimated
Sun 12:17:00 AM 13.9948 -76.7995 345° North  Level Estimated
Sun 12:18:00 AM 14.1142 -76.8325 345° North  Level Estimated
Sun 12:19:00 AM 14.2335 -76.8654 345° North  Level Estimated
Sun 12:20:00 AM 14.3529 -76.8984 345° North  Level Estimated
Sun 12:21:00 AM 14.4722 -76.9314 345° North  Level Estimated
Sun 12:22:00 AM 14.5915 -76.9645 345° North  Level Estimated
Sun 12:23:00 AM 14.7109 -76.9976 345° North  Level Estimated
Sun 12:24:00 AM 14.8302 -77.0307 345° North  Level Estimated
Sun 12:25:00 AM 14.9495 -77.0639 345° North  Level Estimated
Sun 12:26:00 AM 15.0688 -77.0971 345° North  Level Estimated
Sun 12:27:00 AM 15.1881 -77.1304 345° North  Level Estimated
Sun 12:28:00 AM 15.3074 -77.1636 345° North  Level Estimated
Sun 12:29:00 AM 15.4267 -77.1970 345° North  Level Estimated
Sun 12:30:00 AM 15.5460 -77.2303 345° North  Level Estimated
Sun 12:31:00 AM 15.6653 -77.2637 345° North  Level Estimated
Sun 12:32:00 AM 15.7846 -77.2972 345° North  Level Estimated
Sun 12:33:00 AM 15.9039 -77.3306 345° North  Level Estimated
Sun 12:34:00 AM 16.0231 -77.3642 345° North  Level Estimated
Sun 12:35:00 AM 16.1424 -77.3977 345° North  Level Estimated
Sun 12:36:00 AM 16.2617 -77.4313 345° North  Level Estimated
Sun 12:37:00 AM 16.3809 -77.4650 345° North  Level Estimated
Sun 12:38:00 AM 16.5002 -77.4986 345° North  Level Estimated
Sun 12:39:00 AM 16.6194 -77.5324 345° North  Level Estimated
Sun 12:40:00 AM 16.7387 -77.5661 345° North  Level Estimated
Sun 12:41:00 AM 16.8579 -77.5999 345° North  Level Estimated
Sun 12:42:00 AM 16.9771 -77.6338 345° North  Level Estimated
Sun 12:43:00 AM 17.0963 -77.6677 345° North  Level Estimated
Sun 12:44:00 AM 17.2156 -77.7016 345° North  Level Estimated
Sun 12:45:00 AM 17.3348 -77.7356 345° North  Level Estimated
Sun 12:46:00 AM 17.4540 -77.7696 345° North  Level Estimated
Sun 12:47:00 AM 17.5732 -77.8037 345° North  Level Estimated
Sun 12:48:00 AM 17.6924 -77.8378 345° North  Level Estimated
Sun 12:49:00 AM 17.8116 -77.8719 345° North  Level Estimated
Sun 12:50:00 AM 17.9308 -77.9061 345° North  Level Estimated
Sun 12:51:00 AM 18.0499 -77.9404 345° North  Level Estimated
Sun 12:52:00 AM 18.1691 -77.9747 345° North  Level Estimated
Sun 12:53:00 AM 18.2883 -78.0090 345° North  Level Estimated
Sun 12:54:00 AM 18.4074 -78.0434 345° North  Level Estimated
Sun 12:55:00 AM 18.5266 -78.0778 345° North  Level Estimated
Sun 12:56:00 AM 18.6457 -78.1123 345° North  Level Estimated
Sun 12:57:00 AM 18.7649 -78.1469 345° North  Level Estimated
Sun 12:58:00 AM 18.8840 -78.1814 345° North  Level Estimated
Sun 12:59:00 AM 19.0031 -78.2161 345° North  Level Estimated
Sun 01:00:00 AM 19.1223 -78.2507 345° North  Level Estimated
Sun 01:01:00 AM 19.2414 -78.2855 345° North  Level Estimated
Sun 01:02:00 AM 19.3605 -78.3203 345° North  Level Estimated
Sun 01:03:00 AM 19.4796 -78.3551 345° North  Level Estimated
Sun 01:04:00 AM 19.5987 -78.3900 345° North  Level Estimated
Sun 01:05:00 AM 19.7178 -78.4249 345° North  Level Estimated
Sun 01:06:00 AM 19.8368 -78.4599 345° North  Level Estimated
Sun 01:07:00 AM 19.9559 -78.4949 345° North  Level Estimated
Sun 01:08:00 AM 20.0750 -78.5300 345° North  Level Estimated
Sun 01:09:00 AM 20.1940 -78.5652 345° North  Level Estimated
Sun 01:10:00 AM 20.3131 -78.6004 345° North  Level Estimated
Sun 01:11:00 AM 20.4321 -78.6356 344° North  Level Estimated
Sun 01:12:00 AM 20.5512 -78.6709 344° North  Level Estimated
Sun 01:13:00 AM 20.6702 -78.7063 344° North  Level Estimated
Sun 01:14:00 AM 20.7892 -78.7417 344° North  Level Estimated
Sun 01:15:00 AM 20.9083 -78.7772 344° North  Level Estimated
Sun 01:16:00 AM 21.0273 -78.8127 344° North  Level Estimated
Sun 01:17:00 AM 21.1463 -78.8483 344° North  Level Estimated
Sun 01:18:00 AM 21.2653 -78.8840 344° North  Level Estimated
Sun 01:19:00 AM 21.3843 -78.9197 344° North  Level Estimated
Sun 01:20:00 AM 21.5032 -78.9554 344° North  Level Estimated
Sun 01:21:00 AM 21.6222 -78.9912 344° North  Level Estimated
Sun 01:22:00 AM 21.7412 -79.0271 344° North  Level Estimated
Sun 01:23:00 AM 21.8601 -79.0631 344° North  Level Estimated
Sun 01:24:00 AM 21.9791 -79.0991 344° North  Level Estimated
Sun 01:25:00 AM 22.0896 -79.1326 344° North  Level Estimated
Sun 01:26:00 AM 22.2002 -79.1661 344° North  Level Estimated
Sun 01:27:00 AM 22.3107 -79.1998 344° North  Level Estimated
Sun 01:28:00 AM 22.4213 -79.2334 344° North  Level Estimated
Sun 01:28:06 AM 23.2433 -78.8758 344° North 468 539 38,000  Level Miami Center
Sun 01:29:00 AM 22.5318 -79.2672 344° North  Level Estimated
Sun 01:29:07 AM 23.3664 -78.9072 347° North 461 531 38,000  Level Miami Center
Sun 01:30:00 AM 22.6423 -79.3009 344° North  Level Estimated
Sun 01:30:08 AM 23.4892 -78.9342 349° North 468 539 38,000  Level Miami Center
Sun 01:31:00 AM 22.7528 -79.3348 344° North  Level Estimated
Sun 01:31:08 AM 23.6203 -78.9725 345° North 468 539 38,000  Level Miami Center
Sun 01:32:00 AM 22.8634 -79.3687 344° North  Level Estimated
Sun 01:32:05 AM 23.7472 -79.0064 346° North 468 539 38,000  Level Miami Center
Sun 01:33:00 AM 22.9739 -79.4026 344° North  Level Estimated
Sun 01:33:05 AM 23.8722 -79.0381 347° North 468 539 38,000  Level Miami Center
Sun 01:34:07 AM 23.9969 -79.0697 347° North 470 541 38,000 -347 Level Miami Center
Sun 01:35:06 AM 24.1264 -79.0878 353° North 459 528 37,300 -1,475 Descending Miami Center
Sun 01:36:05 AM 24.2472 -79.1014 354° North 451 519 35,100 -2,033 Descending Miami Center
Sun 01:37:07 AM 24.3808 -79.1219 352° North 456 525 33,200 -1,736 Descending Miami Center
Sun 01:38:06 AM 24.5081 -79.1403 353° North 456 525 31,600 -2,193 Descending Miami Center
Sun 01:44:17 AM 25.1430 -79.4340 353° North 16,700 -2,273 Descending FlightAware ADS-B
Sun 01:45:03 AM 25.1910 -79.4910 313° West 357 411 15,800 -1,267 Descending FlightAware ADS-B
Sun 01:45:47 AM 25.2390 -79.5480 313° West 352 405 14,800 -1,341 Descending FlightAware ADS-B
Sun 01:46:28 AM 25.2890 -79.6060 314° West 342 394 13,900 -938 Descending FlightAware ADS-B
Sun 01:47:23 AM 25.3420 -79.6710 312° West 341 392 13,300 -1,213 Descending FlightAware ADS-B
Sun 01:48:02 AM 25.3890 -79.7250 314° West 339 390 12,000 -1,440 Descending FlightAware ADS-B
Sun 01:48:38 AM 25.4240 -79.7760 307° West 319 367 11,500 -750 Descending FlightAware ADS-B
Sun 01:49:22 AM 25.4580 -79.8330 303° West 302 348 11,000 -897 Descending FlightAware ADS-B
Sun 01:50:05 AM 25.4830 -79.8930 295° West 296 341 10,200 -1,114 Descending FlightAware ADS-B
Sun 01:50:32 AM 25.5000 -79.9330 295° West 294 338 9,700 -1,019 Descending FlightAware ADS-B
Sun 01:50:58 AM 25.5150 -79.9690 295° West 289 333 9,300 -933 Descending FlightAware ADS-B
Sun 01:51:17 AM 25.5250 -79.9930 295° West 286 329 9,000 -1,227 Descending FlightAware ADS-B
Sun 01:51:42 AM 25.5400 -80.0280 295° West 287 330 8,400 -1,179 Descending FlightAware ADS-B
Sun 01:52:13 AM 25.5570 -80.0680 295° West 283 326 7,900 -1,071 Descending FlightAware ADS-B
Sun 01:52:38 AM 25.5720 -80.1030 295° West 283 326 7,400 -764 Descending FlightAware ADS-B
Sun 01:53:08 AM 25.5880 -80.1430 294° West 272 313 7,200 -421 Descending FlightAware ADS-B
Sun 01:53:35 AM 25.6010 -80.1730 296° West 256 295 7,000 -517 Descending FlightAware ADS-B
Sun 01:54:06 AM 25.6150 -80.2090 293° West 246 283 6,700 -792 Descending FlightAware ADS-B
Sun 01:54:28 AM 25.6280 -80.2380 296° West 245 282 6,300 -679 Descending FlightAware ADS-B
Sun 01:54:59 AM 25.6420 -80.2710 295° West 231 266 6,100 -700 Descending FlightAware ADS-B
Sun 01:55:28 AM 25.6550 -80.3000 296° West 214 246 5,600 -814 Descending FlightAware ADS-B
Sun 01:55:58 AM 25.6690 -80.3300 297° West 199 229 5,300 -706 Descending FlightAware ADS-B
Sun 01:56:19 AM 25.6740 -80.3460 289° West 198 228 5,000 -982 Descending FlightAware ADS-B
Sun 01:56:53 AM 25.6770 -80.3840 275° West 195 224 4,400 -982 Descending FlightAware ADS-B
Sun 01:57:14 AM 25.6790 -80.4050 276° West 197 227 4,100 -960 Descending FlightAware ADS-B
Sun 01:57:43 AM 25.6820 -80.4330 277° West 195 224 3,600 -941 Descending FlightAware ADS-B
Sun 01:58:05 AM 25.6850 -80.4540 279° West 195 224 3,300 -878 Descending FlightAware ADS-B
Sun 01:58:24 AM 25.6970 -80.4660 318° Northwest 194 223 3,000 -558 Descending FlightAware ADS-B
Sun 01:58:48 AM 25.7220 -80.4700 352° North 197 227 2,900 -245 Descending FlightAware ADS-B
Sun 01:59:13 AM 25.7440 -80.4710 358° North 180 207 2,800 -824 Descending FlightAware ADS-B
Sun 01:59:39 AM 25.7660 -80.4640 16° North 195 224 2,200 -1,171 Descending FlightAware ADS-B
Sun 01:59:54 AM 25.7750 -80.4510 52° Northeast 196 226 2,000 -828 Descending FlightAware ADS-B
Sun 02:00:08 AM 25.7800 -80.4400 63° Northeast 189 217 1,800 -621 Descending FlightAware ADS-B
Sun 02:00:23 AM 25.7820 -80.4250 82° East 184 212 1,700 -588 Descending FlightAware ADS-B
Sun 02:00:59 AM 25.7830 -80.3930 88° East 177 204 1,300 -800 Descending FlightAware ADS-B
Sun 02:01:23 AM 25.7840 -80.3720 87° East 161 185 900 -818 Descending FlightAware ADS-B
Sun 02:01:43 AM 25.7840 -80.3550 90° East 153 176 700 -455 Descending FlightAware ADS-B
Sun 02:02:29 AM 25.7850 -80.3220 88° East 152 175 400 -391 Descending FlightAware ADS-B
Sun 02:02:49 AM 25.7860 -80.3050 86° East 140 161 -1,200 Descending FlightAware ADS-B
Sun 02:03:24 AM 25.7870 -80.2890 86° East 33 38  Level FlightAware ADS-B
Sun 02:03:36 AM 25.7870 -80.2880 90° East 29 33  Level FlightAware ADS-B
Sun 02:03:52 AM 25.7880 -80.2870 42° Northeast 34 39  Level FlightAware ADS-B
Sun 02:04:16 AM 25.7890 -80.2870 360° North 22 25  Level FlightAware ADS-B
Sun 02:04:32 AM 25.7900 -80.2870 360° North 24 28  Level FlightAware ADS-B
Sun 02:05:01 AM 25.7890 -80.2890 241° Southwest 32 37  Level FlightAware ADS-B
Sun 02:05:29 AM 25.7890 -80.2910 270° West 17 20  Level FlightAware ADS-B
Sun 02:05:53 AM 25.7890 -80.2930 270° West 21 24  Level FlightAware ADS-B
Sun 02:06:25 AM 25.7890 -80.2970 270° West 18 21  Level FlightAware ADS-B
Sun 02:06:51 AM 25.7890 -80.2990 270° West 22 25  Level FlightAware ADS-B
Sun 02:07:09 AM 25.7890 -80.3020 270° West 21 24  Level FlightAware ADS-B
Sun 02:07:31 AM 25.7890 -80.3040 270° West 18 21  Level FlightAware ADS-B
Sun 02:08:02 AM 25.7890 -80.3060 270° West 17 20  Level FlightAware ADS-B
Sun 02:08:32 AM 25.7900 -80.3060 360° North 20 23  Level FlightAware ADS-B
Sun 02:11:00 AM 25.7833 -80.2833 77° East  Level FlightAware Approximate
Sun 02:12:00 AM 25.7954 -80.2901 77° East  Level Estimated
Sun 02:13:00 AM 25.7954 -80.2901 77° East  Level Estimated
Sun 02:14:00 AM 25.7954 -80.2901 77° East  Level Estimated
Sun 02:15:00 AM 25.7954 -80.2901 77° East  Level Estimated
Sun 02:16:00 AM 25.7954 -80.2901 77° East  Level Estimated
Sun 02:17:00 AM 25.7954 -80.2901 77° East  Level Estimated
Sun 02:18:00 AM 25.7954 -80.2901 77° East  Level Estimated
Sun 02:19:00 AM 25.7954 -80.2901 77° East  Level Estimated
Sun 02:20:00 AM 25.7954 -80.2901 77° East  Level Estimated
Sun 02:21:00 AM 25.7954 -80.2901 77° East  Level Estimated

Login

Don't have an account? Register now (free) for customized features, flight alerts, and more!